Time;durP1;ratioP1;P1;durP2;ratioP2;P2;SDS_P1;SDS_P2;PMS_P1;PMS_P2;Temp;Humidity;BMP_temperature;BMP_pressure;BME280_temperature;BME280_humidity;BME280_pressure;Samples;Min_cycle;Max_cycle;Signal;HPM_P1;HPM_P2
2021/04/24 00:01:40;;;;;;;49.20;18.55;;;;;;;2.89;65.14;101400.61;1765533;80;21189;-73
2021/04/24 00:04:07;;;;;;;43.87;18.85;;;;;;;2.92;65.20;101384.14;1754141;81;21171;-72
2021/04/24 00:06:33;;;;;;;44.00;16.42;;;;;;;2.99;65.24;101378.04;1754091;81;21616;-73
2021/04/24 00:09:00;;;;;;;58.52;20.12;;;;;;;3.03;65.29;101376.88;1753994;81;21136;-73
2021/04/24 00:11:26;;;;;;;55.75;20.25;;;;;;;3.06;65.34;101380.66;1753506;81;21200;-73
2021/04/24 00:13:53;;;;;;;56.35;18.57;;;;;;;3.11;65.40;101376.39;1740784;82;21199;-73
2021/04/24 00:16:19;;;;;;;38.85;13.75;;;;;;;3.18;65.48;101370.63;1741082;82;21155;-73
2021/04/24 00:18:46;;;;;;;36.00;12.60;;;;;;;3.29;65.56;101370.78;1741184;82;21211;-73
2021/04/24 00:21:12;;;;;;;36.58;12.63;;;;;;;3.46;65.61;101370.53;1741058;82;21140;-73
2021/04/24 00:23:39;;;;;;;35.20;11.25;;;;;;;3.61;65.63;101369.14;1741105;82;21240;-73
2021/04/24 00:26:05;;;;;;;30.92;11.00;;;;;;;3.73;65.68;101370.48;1740978;82;21207;-73
2021/04/24 00:28:32;;;;;;;31.25;10.32;;;;;;;3.85;65.70;101358.27;1744738;81;21187;-72
2021/04/24 00:30:58;;;;;;;28.67;10.05;;;;;;;3.93;65.69;101359.92;1754201;81;21127;-73
2021/04/24 00:33:25;;;;;;;28.92;9.68;;;;;;;3.97;65.70;101356.98;1745937;81;21152;-73
2021/04/24 00:35:53;;;;;;;29.32;11.12;;;;;;;4.01;65.68;101365.03;1756562;80;21167;-73
2021/04/24 00:38:20;;;;;;;22.75;9.18;;;;;;;3.99;65.69;101370.05;1724499;82;21200;-73
2021/04/24 00:40:46;;;;;;;25.88;8.78;;;;;;;3.96;65.67;101368.48;1756019;81;21203;-73
2021/04/24 00:43:13;;;;;;;21.37;8.70;;;;;;;3.95;65.65;101369.89;1724259;83;21611;-73
2021/04/24 00:45:40;;;;;;;21.68;9.20;;;;;;;3.92;65.62;101360.86;1756128;81;21173;-73
2021/04/24 00:48:07;;;;;;;44.08;16.02;;;;;;;3.91;65.60;101361.34;1725079;81;21219;-72
2021/04/24 00:50:36;;;;;;;60.43;20.00;;;;;;;3.92;65.56;101362.19;1724378;83;21200;-73
2021/04/24 00:53:03;;;;;;;48.68;17.20;;;;;;;3.90;65.54;101360.14;1724461;83;21560;-73
2021/04/24 00:55:29;;;;;;;49.58;15.32;;;;;;;3.89;65.53;101362.39;1724261;83;21145;-73
2021/04/24 00:57:57;;;;;;;49.15;18.00;;;;;;;3.87;65.47;101351.11;1724375;83;21156;-73
2021/04/24 01:00:24;;;;;;;40.48;15.32;;;;;;;3.89;65.44;101365.03;1724255;83;21218;-73
2021/04/24 01:02:51;;;;;;;35.03;13.72;;;;;;;3.88;65.41;101358.91;1724359;83;21192;-73
2021/04/24 01:05:21;;;;;;;37.05;12.05;;;;;;;3.88;65.37;101351.46;1724258;83;21148;-73
2021/04/24 01:07:47;;;;;;;30.92;10.93;;;;;;;3.88;65.35;101355.42;1739862;81;21193;-73
2021/04/24 01:10:14;;;;;;;27.27;11.93;;;;;;;3.90;65.31;101362.77;1724363;82;21621;-74
2021/04/24 01:12:41;;;;;;;23.42;9.48;;;;;;;3.88;65.29;101361.55;1755943;81;21270;-73
2021/04/24 01:15:09;;;;;;;20.20;7.85;;;;;;;3.90;65.25;101366.73;1724095;83;21184;-73
2021/04/24 01:17:36;;;;;;;16.10;6.97;;;;;;;3.91;65.22;101360.48;1755902;81;21160;-73
2021/04/24 01:20:04;;;;;;;19.40;5.70;;;;;;;3.93;65.20;101362.56;1726581;81;21609;-73
2021/04/24 01:22:30;;;;;;;10.95;4.92;;;;;;;3.93;65.17;101354.18;1724124;83;21719;-73
2021/04/24 01:24:57;;;;;;;16.60;6.40;;;;;;;3.94;65.12;101351.07;1755977;81;21262;-73
2021/04/24 01:27:23;;;;;;;25.82;7.50;;;;;;;3.97;65.08;101344.26;1755869;81;21187;-73
2021/04/24 01:29:49;;;;;;;17.60;6.10;;;;;;;3.99;65.04;101347.62;1724309;83;21184;-73
2021/04/24 01:32:16;;;;;;;18.67;6.20;;;;;;;4.01;65.01;101337.33;1755389;81;21195;-73
2021/04/24 01:34:42;;;;;;;17.50;6.25;;;;;;;4.03;64.95;101335.91;1742843;81;21131;-73
2021/04/24 01:37:08;;;;;;;12.60;4.92;;;;;;;4.06;64.93;101343.62;1767160;80;21206;-73
2021/04/24 01:39:35;;;;;;;13.45;4.00;;;;;;;4.09;64.88;101347.83;1764416;81;21172;-74
2021/04/24 01:42:01;;;;;;;10.45;3.95;;;;;;;4.12;64.84;101342.37;1796029;79;21131;-73
2021/04/24 01:44:27;;;;;;;8.35;3.52;;;;;;;4.14;64.79;101347.91;1795911;79;21148;-73
2021/04/24 01:46:54;;;;;;;13.35;4.45;;;;;;;4.16;64.75;101349.95;1762999;81;21163;-73
2021/04/24 01:49:20;;;;;;;11.70;4.03;;;;;;;4.19;64.71;101349.73;1793378;79;21175;-73
2021/04/24 01:51:46;;;;;;;16.15;4.22;;;;;;;4.22;64.67;101352.16;1762794;81;21167;-73
2021/04/24 01:54:12;;;;;;;13.30;5.72;;;;;;;4.25;64.62;101349.33;1796027;79;21143;-73
2021/04/24 01:56:48;;;;;;;12.00;5.97;;;;;;;4.28;64.58;101351.75;1794994;79;21123;-73
2021/04/24 01:59:16;;;;;;;10.13;4.67;;;;;;;4.34;64.53;101348.68;1762993;81;21127;-73
2021/04/24 02:01:48;;;;;;;12.53;4.33;;;;;;;4.41;64.48;101345.13;1795974;79;21223;-73
2021/04/24 02:04:15;;;;;;;11.78;4.30;;;;;;;4.46;64.41;101350.48;1762479;81;21139;-73
2021/04/24 02:06:42;;;;;;;10.75;4.87;;;;;;;4.49;64.38;101351.58;1771133;79;21167;-73
2021/04/24 02:09:09;;;;;;;17.57;6.25;;;;;;;4.50;64.34;101341.36;1764542;81;21119;-73
2021/04/24 02:11:37;;;;;;;27.25;8.10;;;;;;;4.53;64.30;101343.81;1764715;81;21179;-73
2021/04/24 02:14:05;;;;;;;22.35;8.58;;;;;;;4.54;64.28;101340.20;1764352;81;21722;-73
2021/04/24 02:16:32;;;;;;;19.62;8.93;;;;;;;4.55;64.26;101338.41;1764675;81;21159;-73
2021/04/24 02:18:58;;;;;;;23.95;9.88;;;;;;;4.57;64.22;101342.27;1788214;79;21119;-74
2021/04/24 02:21:25;;;;;;;14.35;6.75;;;;;;;4.57;64.23;101343.59;1795819;79;21123;-74
2021/04/24 02:23:51;;;;;;;17.82;5.80;;;;;;;4.58;64.20;101339.98;1796011;79;21132;-73
2021/04/24 02:26:17;;;;;;;17.42;6.72;;;;;;;4.57;64.16;101339.16;1761091;81;21197;-73
2021/04/24 02:28:44;;;;;;;13.10;5.47;;;;;;;4.57;64.16;101333.88;1783120;79;21215;-73
2021/04/24 02:31:10;;;;;;;13.08;5.58;;;;;;;4.58;64.15;101338.66;1764500;81;21131;-73
2021/04/24 02:33:37;;;;;;;14.73;6.58;;;;;;;4.58;64.12;101336.86;1764647;80;21149;-73
2021/04/24 02:36:04;;;;;;;18.55;8.98;;;;;;;4.57;64.12;101338.31;1764380;81;21175;-73
2021/04/24 02:38:32;;;;;;;18.95;8.13;;;;;;;4.58;64.10;101332.05;1764555;81;21204;-73
2021/04/24 02:41:02;;;;;;;14.35;6.42;;;;;;;4.56;64.08;101328.69;1764463;81;21600;-73
2021/04/24 02:43:29;;;;;;;15.03;5.97;;;;;;;4.56;64.08;101331.33;1764420;81;21179;-73
2021/04/24 02:45:55;;;;;;;21.87;6.62;;;;;;;4.55;64.06;101329.16;1764553;81;21571;-73
2021/04/24 02:48:22;;;;;;;19.10;7.83;;;;;;;4.55;64.09;101331.80;1772695;79;21159;-73
2021/04/24 02:50:48;;;;;;;15.70;7.42;;;;;;;4.53;64.08;101324.48;1736433;81;21219;-73
2021/04/24 02:53:15;;;;;;;13.13;6.03;;;;;;;4.52;64.08;101320.98;1764750;79;21634;-73
2021/04/24 02:55:42;;;;;;;15.30;6.62;;;;;;;4.52;64.08;101323.62;1783331;79;21170;-73
2021/04/24 02:58:08;;;;;;;15.80;7.03;;;;;;;4.53;64.08;101321.83;1795865;79;21115;-74
2021/04/24 03:00:34;;;;;;;18.35;7.97;;;;;;;4.54;64.09;101319.06;1796001;79;21138;-73
2021/04/24 03:03:10;;;;;;;19.50;8.08;;;;;;;4.56;64.09;101316.33;1796022;79;21914;-73
2021/04/24 03:05:36;;;;;;;14.33;6.10;;;;;;;4.56;64.09;101316.33;1795742;79;21777;-73
2021/04/24 03:08:04;;;;;;;14.18;5.75;;;;;;;4.57;64.12;101315.86;1796031;79;21122;-73
2021/04/24 03:10:30;;;;;;;17.92;5.80;;;;;;;4.56;64.12;101315.48;1795815;79;21146;-73
2021/04/24 03:12:56;;;;;;;13.60;5.80;;;;;;;4.53;64.15;101317.41;1796015;79;21193;-73
2021/04/24 03:15:23;;;;;;;19.80;7.15;;;;;;;4.53;64.16;101312.12;1795849;79;21178;-73
2021/04/24 03:17:50;;;;;;;19.67;7.33;;;;;;;4.51;64.17;101313.16;1794662;79;21175;-73
2021/04/24 03:20:17;;;;;;;17.52;5.72;;;;;;;4.49;64.22;101308.00;1762734;81;21175;-73
2021/04/24 03:22:44;;;;;;;15.18;5.97;;;;;;;4.46;64.21;101310.86;1794290;80;21152;-74
2021/04/24 03:25:10;;;;;;;12.98;5.95;;;;;;;4.42;64.25;101309.39;1762960;81;21127;-74
2021/04/24 03:27:37;;;;;;;13.98;4.83;;;;;;;4.40;64.25;101305.99;1782270;80;21201;-74
2021/04/24 03:30:06;;;;;;;13.58;5.97;;;;;;;4.37;64.28;101308.86;1764595;81;21195;-73
2021/04/24 03:32:32;;;;;;;18.67;6.67;;;;;;;4.34;64.27;101309.08;1764385;81;21151;-73
2021/04/24 03:34:59;;;;;;;14.70;6.55;;;;;;;4.30;64.31;101307.59;1732450;82;21122;-73
2021/04/24 03:37:25;;;;;;;19.98;7.30;;;;;;;4.26;64.31;101303.95;1763304;81;21123;-74
2021/04/24 03:39:52;;;;;;;23.90;7.33;;;;;;;4.22;64.34;101304.64;1755887;81;21663;-73
2021/04/24 03:42:18;;;;;;;14.80;5.65;;;;;;;4.18;64.37;101307.16;1755828;81;21150;-73
2021/04/24 03:44:44;;;;;;;13.58;6.50;;;;;;;4.13;64.39;101303.97;1755841;81;21135;-73
2021/04/24 03:47:10;;;;;;;13.55;6.12;;;;;;;4.09;64.43;101306.92;1756191;80;21132;-73
2021/04/24 03:49:37;;;;;;;14.90;5.95;;;;;;;4.05;64.46;101313.39;1723022;81;21170;-73
2021/04/24 03:52:04;;;;;;;16.70;6.25;;;;;;;3.99;64.48;101303.61;1768827;80;21282;-73
2021/04/24 03:54:33;;;;;;;15.78;6.15;;;;;;;3.95;64.50;101310.52;1755868;80;21155;-73
2021/04/24 03:56:59;;;;;;;18.50;6.45;;;;;;;3.91;64.55;101307.71;1756134;81;21168;-74
2021/04/24 03:59:26;;;;;;;20.23;6.42;;;;;;;3.88;64.57;101307.92;1724533;81;21155;-73
2021/04/24 04:01:52;;;;;;;14.15;5.75;;;;;;;3.86;64.63;101307.20;1755964;81;21152;-73
2021/04/24 04:04:18;;;;;;;16.02;6.62;;;;;;;3.86;64.67;101307.20;1755970;81;21202;-73
2021/04/24 04:06:45;;;;;;;19.07;6.40;;;;;;;3.85;64.69;101309.46;1769149;80;21574;-73
2021/04/24 04:09:11;;;;;;;14.95;5.72;;;;;;;3.85;64.76;101301.08;1727245;81;21151;-73
2021/04/24 04:11:38;;;;;;;9.60;4.60;;;;;;;3.88;64.80;101305.29;1745228;81;21164;-73
2021/04/24 04:14:04;;;;;;;12.93;5.08;;;;;;;3.90;64.87;101306.90;1745405;82;21184;-73
2021/04/24 04:16:30;;;;;;;12.55;5.47;;;;;;;4.12;65.04;101300.95;1745260;82;21240;-73
2021/04/24 04:18:57;;;;;;;15.75;7.75;;;;;;;4.40;65.16;101301.19;1745162;81;21164;-73
2021/04/24 04:21:23;;;;;;;18.98;7.30;;;;;;;4.51;65.07;101306.08;1745282;81;21637;-73
2021/04/24 04:23:49;;;;;;;19.95;6.10;;;;;;;4.44;65.01;101302.19;1745201;82;21177;-73
2021/04/24 04:26:16;;;;;;;13.55;5.45;;;;;;;4.39;65.04;101301.69;1745338;81;21124;-73
2021/04/24 04:28:43;;;;;;;16.32;6.97;;;;;;;4.37;65.08;101306.22;1745286;82;22161;-73
2021/04/24 04:31:09;;;;;;;15.88;6.30;;;;;;;4.34;65.14;101306.44;1745394;81;21238;-73
2021/04/24 04:33:36;;;;;;;22.80;6.85;;;;;;;4.35;65.13;101302.84;1755270;80;21625;-73
2021/04/24 04:36:04;;;;;;;18.23;6.50;;;;;;;4.38;65.12;101309.23;1756508;80;21159;-73
2021/04/24 04:38:31;;;;;;;15.65;7.15;;;;;;;4.46;65.13;101305.58;1724405;82;21156;-73
2021/04/24 04:40:57;;;;;;;20.80;7.83;;;;;;;4.54;65.14;101305.86;1724257;83;21210;-73
2021/04/24 04:43:24;;;;;;;17.07;7.35;;;;;;;4.91;65.12;101307.19;1755961;81;21612;-73
2021/04/24 04:45:50;;;;;;;14.75;5.12;;;;;;;5.47;64.99;101314.43;1741155;81;21160;-73
2021/04/24 04:48:16;;;;;;;19.67;5.58;;;;;;;5.90;64.96;101309.41;1754282;81;21172;-74
2021/04/24 04:50:43;;;;;;;11.03;5.95;;;;;;;5.74;64.80;101309.32;1754285;81;21172;-73
2021/04/24 04:53:09;;;;;;;18.80;8.13;;;;;;;5.51;64.74;101306.63;1754409;81;22094;-73
2021/04/24 04:55:36;;;;;;;20.25;8.08;;;;;;;5.37;64.73;101309.47;1754296;81;21176;-73
2021/04/24 04:58:03;;;;;;;19.05;6.67;;;;;;;5.27;64.68;101310.27;1754328;81;21183;-73
2021/04/24 05:00:29;;;;;;;14.63;6.35;;;;;;;5.22;64.66;101315.88;1754363;81;21149;-73
2021/04/24 05:02:56;;;;;;;12.10;6.03;;;;;;;5.17;64.59;101316.72;1754343;81;21631;-73
2021/04/24 05:05:23;;;;;;;18.23;5.78;;;;;;;5.16;64.53;101328.72;1731610;81;21209;-73
2021/04/24 05:07:49;;;;;;;13.93;5.97;;;;;;;5.12;64.47;101331.21;1758178;81;21629;-73
2021/04/24 05:10:17;;;;;;;21.30;6.87;;;;;;;5.12;64.42;101329.42;1760287;80;21180;-73
2021/04/24 05:12:44;;;;;;;11.80;5.45;;;;;;;5.16;64.37;101328.23;1761059;81;21135;-73
2021/04/24 05:15:12;;;;;;;11.38;4.87;;;;;;;5.23;64.34;101330.80;1754269;81;21160;-73
2021/04/24 05:17:38;;;;;;;10.93;5.20;;;;;;;5.29;64.29;101327.70;1785256;80;22175;-74
2021/04/24 05:20:06;;;;;;;11.57;4.65;;;;;;;5.38;64.25;101329.64;1754164;81;21203;-74
2021/04/24 05:22:32;;;;;;;22.30;4.47;;;;;;;5.48;64.15;101330.67;1785498;80;21152;-74
2021/04/24 05:24:59;;;;;;;11.60;4.25;;;;;;;5.57;64.08;101322.98;1754320;81;21625;-74
2021/04/24 05:27:26;;;;;;;10.82;4.37;;;;;;;5.67;63.97;101329.27;1785365;80;21156;-74
2021/04/24 05:29:52;;;;;;;15.98;4.85;;;;;;;5.79;63.89;101328.36;1755393;81;21373;-74
2021/04/24 05:32:18;;;;;;;15.45;5.97;;;;;;;5.89;63.77;101329.37;1787015;80;21144;-74
2021/04/24 05:34:47;;;;;;;18.30;8.65;;;;;;;5.99;63.64;101336.97;1754250;81;21136;-74
2021/04/24 05:37:15;;;;;;;20.32;8.10;;;;;;;6.12;63.57;101340.38;1786957;80;21163;-74
2021/04/24 05:39:41;;;;;;;31.52;8.63;;;;;;;6.31;63.45;101341.95;1761283;81;21154;-74
2021/04/24 05:42:10;;;;;;;29.52;9.63;;;;;;;6.58;63.31;101339.44;1796052;79;22100;-74
2021/04/24 05:44:37;;;;;;;23.80;9.37;;;;;;;6.82;63.19;101340.14;1763145;81;21166;-74
2021/04/24 05:47:03;;;;;;;20.92;7.08;;;;;;;6.96;63.08;101339.88;1796102;79;21580;-74
2021/04/24 05:49:32;;;;;;;18.20;6.00;;;;;;;6.99;62.99;101329.86;1762892;81;21163;-74
2021/04/24 05:51:59;;;;;;;15.88;6.97;;;;;;;7.21;62.84;101330.77;1796191;79;21527;-74
2021/04/24 05:54:26;;;;;;;19.85;6.53;;;;;;;7.51;62.64;101330.41;1762810;81;21588;-74
2021/04/24 05:56:52;;;;;;;18.37;7.05;;;;;;;8.04;62.44;101338.32;1767953;80;21159;-74
2021/04/24 05:59:19;;;;;;;20.08;7.75;;;;;;;8.38;62.28;101334.95;1793745;79;21175;-74
2021/04/24 06:01:45;;;;;;;18.98;6.67;;;;;;;8.71;62.10;101333.36;1794450;79;21139;-74
2021/04/24 06:04:12;;;;;;;21.52;8.80;;;;;;;8.77;61.91;101339.94;1762831;81;21242;-74
2021/04/24 06:06:38;;;;;;;16.32;7.50;;;;;;;8.64;61.71;101339.34;1795991;79;21201;-74
2021/04/24 06:09:06;;;;;;;17.05;5.87;;;;;;;8.48;61.48;101338.02;1795971;79;21139;-74
2021/04/24 06:11:34;;;;;;;15.50;6.62;;;;;;;8.69;61.33;101329.16;1762785;81;21202;-74
2021/04/24 06:14:01;;;;;;;22.15;10.25;;;;;;;9.03;61.08;101335.83;1796078;79;21123;-74
2021/04/24 06:16:28;;;;;;;28.73;16.30;;;;;;;8.96;60.83;101333.36;1757837;80;21572;-75
2021/04/24 06:18:55;;;;;;;34.25;17.95;;;;;;;9.17;60.64;101335.44;1734153;82;22109;-75
2021/04/24 06:21:22;;;;;;;23.42;10.03;;;;;;;9.44;60.37;101334.26;1746791;81;21179;-75
2021/04/24 06:23:48;;;;;;;18.48;8.63;;;;;;;9.44;60.09;101332.92;1747927;81;21160;-75
2021/04/24 06:26:14;;;;;;;15.40;7.45;;;;;;;9.32;59.95;101335.88;1748015;81;21142;-75
2021/04/24 06:28:40;;;;;;;15.70;7.12;;;;;;;9.12;59.76;101340.31;1786847;79;21140;-75
2021/04/24 06:31:07;;;;;;;18.30;5.58;;;;;;;8.96;59.55;101347.98;1763166;81;21565;-75
2021/04/24 06:33:33;;;;;;;14.20;5.08;;;;;;;8.79;59.37;101343.33;1795404;79;21163;-75
2021/04/24 06:36:00;;;;;;;12.43;4.72;;;;;;;8.69;59.18;101345.93;1788215;78;21510;-75
2021/04/24 06:38:26;;;;;;;10.78;5.00;;;;;;;8.69;59.02;101338.47;1789968;79;21682;-75
2021/04/24 06:40:53;;;;;;;13.90;5.70;;;;;;;8.73;58.87;101334.53;1791225;79;21186;-75
2021/04/24 06:43:19;;;;;;;14.07;4.62;;;;;;;8.85;58.77;101336.13;1732624;82;21267;-75
2021/04/24 06:45:45;;;;;;;8.90;4.78;;;;;;;9.03;58.57;101338.48;1775168;79;21158;-76
2021/04/24 06:48:11;;;;;;;11.10;4.37;;;;;;;9.03;58.41;101339.81;1787614;79;21615;-75
2021/04/24 06:50:38;;;;;;;8.93;3.50;;;;;;;8.99;58.29;101336.59;1773634;78;21178;-75
2021/04/24 06:53:04;;;;;;;10.08;3.70;;;;;;;8.91;58.12;101331.58;1764152;79;21167;-75
2021/04/24 06:55:30;;;;;;;15.95;7.72;;;;;;;9.05;57.92;101329.86;1759763;81;21202;-75
2021/04/24 06:57:56;;;;;;;10.25;3.90;;;;;;;9.11;57.68;101333.33;1749278;81;21151;-75
2021/04/24 07:00:23;;;;;;;8.98;3.70;;;;;;;9.11;57.45;101324.02;1756393;81;21566;-75
2021/04/24 07:02:49;;;;;;;8.90;4.05;;;;;;;9.10;57.23;101326.31;1756527;81;21616;-75
2021/04/24 07:05:16;;;;;;;10.55;4.40;;;;;;;9.11;56.99;101316.52;1749929;81;21650;-75
2021/04/24 07:07:42;;;;;;;13.68;7.45;;;;;;;9.11;56.73;101316.03;1778762;79;21460;-75
2021/04/24 07:10:10;;;;;;;10.98;5.10;;;;;;;9.49;56.55;101311.22;1779996;78;21187;-75
2021/04/24 07:12:36;;;;;;;8.40;3.70;;;;;;;9.83;56.23;101310.26;1778088;79;21201;-75
2021/04/24 07:15:05;;;;;;;7.85;3.45;;;;;;;9.83;55.89;101318.25;1783580;79;21152;-75
2021/04/24 07:17:31;;;;;;;10.78;4.37;;;;;;;9.77;55.61;101319.67;1751919;81;21159;-75
2021/04/24 07:19:57;;;;;;;13.48;5.15;;;;;;;9.79;55.40;101323.52;1782774;79;21639;-75
2021/04/24 07:22:23;;;;;;;6.65;3.30;;;;;;;10.13;55.25;101319.41;1737401;81;21196;-75
2021/04/24 07:24:50;;;;;;;10.00;3.47;;;;;;;10.31;54.85;101324.85;1761676;81;21242;-75
2021/04/24 07:27:16;;;;;;;9.23;4.15;;;;;;;10.33;54.61;101325.05;1758424;81;21151;-75
2021/04/24 07:29:43;;;;;;;8.23;3.22;;;;;;;10.31;54.40;101319.00;1759646;81;21160;-75
2021/04/24 07:32:09;;;;;;;8.85;3.52;;;;;;;10.27;54.16;101313.64;1733209;81;21986;-75
2021/04/24 07:34:36;;;;;;;8.80;4.08;;;;;;;10.11;53.84;101318.69;1753639;81;45828;-75
2021/04/24 07:37:03;;;;;;;10.15;4.92;;;;;;;10.06;53.66;101314.30;1762711;79;21171;-74
2021/04/24 07:39:30;;;;;;;9.80;4.60;;;;;;;10.09;53.48;101318.00;1755941;80;21168;-75
2021/04/24 07:41:56;;;;;;;21.50;5.55;;;;;;;10.13;53.28;101315.41;1756105;80;21602;-75
2021/04/24 07:44:24;;;;;;;9.70;3.42;;;;;;;10.12;53.05;101310.20;1752563;80;21185;-75
2021/04/24 07:46:52;;;;;;;9.93;3.85;;;;;;;10.16;52.84;101324.47;1775238;80;21563;-75
2021/04/24 07:49:18;;;;;;;16.40;4.92;;;;;;;10.20;52.64;101313.88;1777796;80;21131;-75
2021/04/24 07:51:45;;;;;;;13.88;4.15;;;;;;;10.23;52.43;101317.58;1779439;80;21136;-75
2021/04/24 07:54:13;;;;;;;11.05;4.03;;;;;;;10.23;52.17;101319.39;1747154;81;21612;-75
2021/04/24 07:56:41;;;;;;;11.60;4.70;;;;;;;10.23;52.00;101319.39;1750278;80;21194;-75
2021/04/24 07:59:08;;;;;;;22.20;13.98;;;;;;;10.20;51.78;101314.36;1772381;78;21148;-75
2021/04/24 08:01:37;;;;;;;29.77;15.65;;;;;;;10.03;51.48;101316.73;1762530;80;21136;-75
2021/04/24 08:04:05;;;;;;;30.77;10.30;;;;;;;9.95;51.34;101319.79;1738075;81;21619;-75
2021/04/24 08:06:31;;;;;;;12.55;5.05;;;;;;;10.10;51.22;101318.33;1776909;80;21585;-74
2021/04/24 08:08:58;;;;;;;11.45;3.83;;;;;;;10.50;51.05;101314.94;1762413;80;21187;-75
2021/04/24 08:11:24;;;;;;;9.30;3.80;;;;;;;11.01;50.79;101301.02;1778184;78;21179;-75
2021/04/24 08:13:51;;;;;;;18.23;5.20;;;;;;;11.13;50.50;101301.66;1771244;78;21510;-75
2021/04/24 08:16:17;;;;;;;17.48;6.15;;;;;;;11.13;50.30;101306.16;1749148;81;21168;-75
2021/04/24 08:18:44;;;;;;;26.60;13.75;;;;;;;11.16;50.11;101304.02;1767563;80;21157;-75
2021/04/24 08:21:10;;;;;;;11.08;5.33;;;;;;;11.38;49.95;101301.40;1774486;79;21604;-75
2021/04/24 08:23:37;;;;;;;20.80;7.60;;;;;;;11.59;49.64;101295.24;1771373;80;21189;-75
2021/04/24 08:26:03;;;;;;;12.55;3.80;;;;;;;11.75;49.36;101297.25;1747255;81;21183;-75
2021/04/24 08:28:29;;;;;;;9.45;4.22;;;;;;;11.68;49.00;101289.48;1744033;81;21192;-75
2021/04/24 08:30:56;;;;;;;15.15;6.55;;;;;;;11.77;48.90;101292.58;1750547;81;22160;-75
2021/04/24 08:33:23;;;;;;;8.68;3.65;;;;;;;11.89;48.85;101299.36;1751148;81;21196;-75
2021/04/24 08:35:49;;;;;;;9.28;4.78;;;;;;;11.95;48.73;101296.05;1753250;81;21204;-75
2021/04/24 08:38:16;;;;;;;14.35;5.10;;;;;;;12.17;48.70;101290.19;1719296;81;21171;-76
2021/04/24 08:40:42;;;;;;;10.90;3.87;;;;;;;12.31;48.53;101288.26;1738760;81;21162;-75
2021/04/24 08:43:08;;;;;;;16.50;5.75;;;;;;;12.11;48.38;101288.62;1756299;81;21130;-75
2021/04/24 08:45:35;;;;;;;24.27;10.28;;;;;;;11.99;48.37;101287.57;1762721;81;21194;-75
2021/04/24 08:48:01;;;;;;;44.35;22.40;;;;;;;11.95;48.36;101281.34;1755294;81;21622;-75
2021/04/24 08:50:30;;;;;;;14.68;5.55;;;;;;;11.99;48.38;101284.05;1757105;81;21135;-75
2021/04/24 08:52:56;;;;;;;10.25;4.10;;;;;;;11.93;48.25;101288.67;1765423;81;21174;-76
2021/04/24 08:55:25;;;;;;;27.40;11.68;;;;;;;11.79;48.20;101290.58;1756449;81;21166;-75
2021/04/24 08:57:52;;;;;;;25.82;8.30;;;;;;;11.60;48.15;101288.91;1734755;81;21196;-76
2021/04/24 09:00:22;;;;;;;19.98;9.40;;;;;;;11.52;48.19;101292.35;1735028;81;21184;-75
2021/04/24 09:02:48;;;;;;;28.95;11.95;;;;;;;11.38;48.06;101290.22;1740676;81;21139;-75
2021/04/24 09:05:16;;;;;;;12.20;4.92;;;;;;;11.25;47.91;101292.45;1737875;81;21167;-75
2021/04/24 09:07:43;;;;;;;30.75;8.28;;;;;;;11.16;47.85;101288.00;1739681;81;21159;-75
2021/04/24 09:10:17;;;;;;;15.55;5.42;;;;;;;11.33;47.86;101283.67;1735067;81;22123;-75
2021/04/24 09:12:46;;;;;;;7.45;3.08;;;;;;;11.93;47.74;101283.32;1735052;82;21123;-76
2021/04/24 09:15:24;;;;;;;8.90;2.90;;;;;;;12.57;47.50;101277.98;1735388;82;21186;-75
2021/04/24 09:18:00;;;;;;;4.53;1.62;;;;;;;13.01;46.85;101271.45;1734934;82;21147;-75
2021/04/24 09:20:31;;;;;;;7.58;2.80;;;;;;;13.14;46.27;101268.31;1735229;82;21177;-75
2021/04/24 09:23:06;;;;;;;9.28;3.22;;;;;;;13.30;45.71;101269.16;1732713;82;21224;-76
2021/04/24 09:25:46;;;;;;;10.93;2.75;;;;;;;13.27;45.04;101263.30;1734960;82;21202;-76
2021/04/24 09:28:30;;;;;;;12.10;2.87;;;;;;;12.95;44.25;101265.39;1746407;79;22239;-75
2021/04/24 09:31:01;;;;;;;15.88;5.40;;;;;;;13.06;44.05;101271.77;1753825;81;21635;-76
2021/04/24 09:33:33;;;;;;;9.93;3.02;;;;;;;12.76;43.87;101276.39;1730932;81;21151;-76
2021/04/24 09:36:00;;;;;;;5.75;2.27;;;;;;;12.42;43.94;101281.27;1788729;80;21165;-75
2021/04/24 09:38:32;;;;;;;46.02;6.67;;;;;;;12.13;43.89;101276.79;1769575;80;21195;-75
2021/04/24 09:41:23;;;;;;;68.02;11.65;;;;;;;11.92;43.90;101280.33;1724241;81;21557;-75
2021/04/24 09:44:09;;;;;;;16.02;7.90;;;;;;;11.88;44.06;101277.63;1768778;80;21172;-75
2021/04/24 09:46:51;;;;;;;23.00;9.65;;;;;;;12.03;44.19;101274.20;1775538;80;21164;-75
2021/04/24 09:49:31;;;;;;;31.05;11.40;;;;;;;12.14;44.15;101271.76;1736055;81;21204;-75
2021/04/24 09:52:05;;;;;;;;;;;;;;;12.27;44.23;101265.50;1736476;81;21180;-75
2021/04/24 09:54:44;;;;;;;37.55;6.28;;;;;;;12.45;44.29;101262.22;1751593;81;20282;-75
2021/04/24 09:57:21;;;;;;;18.60;7.30;;;;;;;12.64;44.27;101265.63;1759676;81;21172;-75
2021/04/24 09:59:55;;;;;;;9.35;3.60;;;;;;;12.67;44.23;101259.45;1751087;81;21143;-75
2021/04/24 10:02:31;;;;;;;24.85;7.53;;;;;;;12.85;44.10;101251.31;1748981;81;21289;-75
2021/04/24 10:05:14;;;;;;;31.35;7.65;;;;;;;12.98;43.89;101249.02;1737879;81;21187;-75
2021/04/24 10:07:46;;;;;;;36.90;7.45;;;;;;;13.02;43.77;101255.20;1758979;81;21160;-75
2021/04/24 10:10:15;;;;;;;15.43;4.90;;;;;;;12.97;43.71;101258.05;1760713;81;21160;-75
2021/04/24 10:13:01;;;;;;;34.67;9.25;;;;;;;12.77;43.71;101260.16;1750809;81;21226;-75
2021/04/24 10:15:39;;;;;;;8.25;3.30;;;;;;;12.59;43.77;101254.59;1735128;81;22262;-74
2021/04/24 10:18:08;;;;;;;11.18;3.90;;;;;;;12.61;43.79;101250.75;1745170;81;21175;-75
2021/04/24 10:20:35;;;;;;;11.57;4.72;;;;;;;12.60;43.79;101253.57;1731838;81;21636;-75
2021/04/24 10:23:03;;;;;;;11.45;3.87;;;;;;;12.43;43.72;101248.67;1732223;81;21616;-75
2021/04/24 10:25:29;;;;;;;15.10;4.10;;;;;;;12.41;43.66;101252.86;1731975;81;21608;-74
2021/04/24 10:27:56;;;;;;;17.62;9.48;;;;;;;12.32;43.55;101245.78;1731715;82;22076;-74
2021/04/24 10:30:22;;;;;;;29.63;11.35;;;;;;;12.27;43.54;101244.59;1749576;81;21191;-75
2021/04/24 10:32:54;;;;;;;18.42;6.70;;;;;;;12.31;43.63;101241.45;1761918;81;21649;-74
2021/04/24 10:35:21;;;;;;;31.62;10.48;;;;;;;12.52;43.67;101246.38;1744346;81;21163;-74
2021/04/24 10:37:48;;;;;;;15.68;7.65;;;;;;;12.62;43.58;101238.21;1740414;81;21176;-74
2021/04/24 10:40:15;;;;;;;19.40;7.33;;;;;;;12.61;43.53;101234.69;1744098;81;21601;-74
2021/04/24 10:42:43;;;;;;;11.25;4.53;;;;;;;12.74;43.56;101239.56;1738545;81;21168;-74
2021/04/24 10:45:10;;;;;;;33.95;10.38;;;;;;;12.85;43.47;101230.73;1736720;81;21621;-75
2021/04/24 10:47:43;;;;;;;19.30;7.33;;;;;;;12.81;43.42;101231.22;1753198;81;21155;-75
2021/04/24 10:50:17;;;;;;;21.52;5.92;;;;;;;12.77;43.30;101234.73;1749189;81;21188;-74
2021/04/24 10:52:45;;;;;;;10.82;4.03;;;;;;;12.83;43.23;101235.44;1761692;81;21187;-74
2021/04/24 10:55:24;;;;;;;19.62;4.37;;;;;;;12.78;43.10;101233.73;1740527;81;21208;-74
2021/04/24 10:58:00;;;;;;;;;;;;;;;12.69;43.05;101233.89;1744986;81;21577;-74
2021/04/24 11:00:35;;;;;;;19.23;4.00;;;;;;;12.95;43.16;101231.92;1740392;81;20274;-75
2021/04/24 11:03:01;;;;;;;11.15;4.70;;;;;;;12.87;42.97;101234.61;1740207;79;21155;-74
2021/04/24 11:05:46;;;;;;;19.20;7.30;;;;;;;12.70;43.00;101231.55;1747046;82;21170;-74
2021/04/24 11:08:22;;;;;;;15.10;4.72;;;;;;;12.71;43.06;101231.88;1740474;81;21206;-74
2021/04/24 11:11:14;;;;;;;19.82;5.80;;;;;;;12.65;43.09;101231.19;1748663;81;21162;-74
2021/04/24 11:13:47;;;;;;;12.85;4.30;;;;;;;12.48;43.17;101243.19;1743830;81;21620;-74
2021/04/24 11:16:15;;;;;;;7.62;3.30;;;;;;;12.35;43.24;101242.78;1745937;81;21180;-74
2021/04/24 11:18:44;;;;;;;15.85;5.08;;;;;;;12.19;43.26;101234.70;1714027;81;21281;-74
2021/04/24 11:21:27;;;;;;;18.42;5.22;;;;;;;12.03;43.26;101240.78;1751047;81;21657;-74
2021/04/24 11:24:15;;;;;;;9.35;3.90;;;;;;;11.98;43.31;101239.59;1743285;81;21187;-74
2021/04/24 11:26:46;;;;;;;11.93;4.72;;;;;;;12.00;43.33;101242.94;1743682;80;21639;-74